<?xml version="1.0" encoding="UTF-8" standalone="no" ?>
<gpx xmlns="http://www.topografix.com/GPX/1/1" xmlns:xsi="http://www.w3.org/2001/XMLSchema-instance" xsi:schemaLocation="http://www.topografix.com/GPX/1/1 http://www.topografix.com/GPX/1/1/gpx.xsd" version="1.1" creator="VisuGPX - https://www.visugpx.com">
  <metadata>
    <name>Sainte Maxime reel</name>
    <desc><![CDATA[Sainte Maxime reel]]></desc>
  </metadata>
  <trk>
    <name><![CDATA[58ACTIVE LOG- 24 AOU 2012 GRIMAUD-STE-MAXIME]]></name>
    <trkseg>
      <trkpt lat="43.28173" lon="6.58741">
        <ele>2</ele>
        <time>2012-08-24T06:22:04Z</time>
      </trkpt>
      <trkpt lat="43.28167" lon="6.58746">
        <ele>2</ele>
        <time>2012-08-24T06:44:13Z</time>
      </trkpt>
      <trkpt lat="43.28178" lon="6.58685">
        <ele>3</ele>
        <time>2012-08-24T06:44:32Z</time>
      </trkpt>
      <trkpt lat="43.2819" lon="6.58622">
        <ele>5</ele>
        <time>2012-08-24T06:44:47Z</time>
      </trkpt>
      <trkpt lat="43.28198" lon="6.5857">
        <ele>6</ele>
        <time>2012-08-24T06:45:02Z</time>
      </trkpt>
      <trkpt lat="43.28182" lon="6.58513">
        <ele>6</ele>
        <time>2012-08-24T06:45:14Z</time>
      </trkpt>
      <trkpt lat="43.28169" lon="6.58453">
        <ele>6</ele>
        <time>2012-08-24T06:45:26Z</time>
      </trkpt>
      <trkpt lat="43.28152" lon="6.5839">
        <ele>5</ele>
        <time>2012-08-24T06:45:37Z</time>
      </trkpt>
      <trkpt lat="43.28134" lon="6.58327">
        <ele>5</ele>
        <time>2012-08-24T06:45:49Z</time>
      </trkpt>
      <trkpt lat="43.28117" lon="6.58262">
        <ele>5</ele>
        <time>2012-08-24T06:46:02Z</time>
      </trkpt>
      <trkpt lat="43.28099" lon="6.58196">
        <ele>5</ele>
        <time>2012-08-24T06:46:15Z</time>
      </trkpt>
      <trkpt lat="43.28086" lon="6.58136">
        <ele>5</ele>
        <time>2012-08-24T06:46:27Z</time>
      </trkpt>
      <trkpt lat="43.28069" lon="6.58074">
        <ele>6</ele>
        <time>2012-08-24T06:46:39Z</time>
      </trkpt>
      <trkpt lat="43.28051" lon="6.58002">
        <ele>7</ele>
        <time>2012-08-24T06:46:48Z</time>
      </trkpt>
      <trkpt lat="43.2805" lon="6.57949">
        <ele>7</ele>
        <time>2012-08-24T06:47:05Z</time>
      </trkpt>
      <trkpt lat="43.28034" lon="6.57889">
        <ele>7</ele>
        <time>2012-08-24T06:47:26Z</time>
      </trkpt>
      <trkpt lat="43.28008" lon="6.57829">
        <ele>8</ele>
        <time>2012-08-24T06:47:38Z</time>
      </trkpt>
      <trkpt lat="43.27983" lon="6.57771">
        <ele>8</ele>
        <time>2012-08-24T06:47:49Z</time>
      </trkpt>
      <trkpt lat="43.2796" lon="6.57717">
        <ele>9</ele>
        <time>2012-08-24T06:48:00Z</time>
      </trkpt>
      <trkpt lat="43.27933" lon="6.57669">
        <ele>9</ele>
        <time>2012-08-24T06:48:10Z</time>
      </trkpt>
      <trkpt lat="43.27896" lon="6.57629">
        <ele>8</ele>
        <time>2012-08-24T06:48:20Z</time>
      </trkpt>
      <trkpt lat="43.27864" lon="6.57585">
        <ele>8</ele>
        <time>2012-08-24T06:48:33Z</time>
      </trkpt>
      <trkpt lat="43.27851" lon="6.57523">
        <ele>7</ele>
        <time>2012-08-24T06:48:48Z</time>
      </trkpt>
      <trkpt lat="43.27841" lon="6.57458">
        <ele>7</ele>
        <time>2012-08-24T06:49:00Z</time>
      </trkpt>
      <trkpt lat="43.27827" lon="6.57392">
        <ele>6</ele>
        <time>2012-08-24T06:49:10Z</time>
      </trkpt>
      <trkpt lat="43.27806" lon="6.57336">
        <ele>6</ele>
        <time>2012-08-24T06:49:21Z</time>
      </trkpt>
      <trkpt lat="43.27785" lon="6.57281">
        <ele>6</ele>
        <time>2012-08-24T06:49:33Z</time>
      </trkpt>
      <trkpt lat="43.27764" lon="6.57224">
        <ele>6</ele>
        <time>2012-08-24T06:49:47Z</time>
      </trkpt>
      <trkpt lat="43.27738" lon="6.57172">
        <ele>6</ele>
        <time>2012-08-24T06:49:59Z</time>
      </trkpt>
      <trkpt lat="43.2771" lon="6.5712">
        <ele>6</ele>
        <time>2012-08-24T06:50:10Z</time>
      </trkpt>
      <trkpt lat="43.27675" lon="6.57077">
        <ele>6</ele>
        <time>2012-08-24T06:50:20Z</time>
      </trkpt>
      <trkpt lat="43.27644" lon="6.57032">
        <ele>6</ele>
        <time>2012-08-24T06:50:29Z</time>
      </trkpt>
      <trkpt lat="43.27611" lon="6.56986">
        <ele>6</ele>
        <time>2012-08-24T06:50:40Z</time>
      </trkpt>
      <trkpt lat="43.27583" lon="6.56929">
        <ele>6</ele>
        <time>2012-08-24T06:50:53Z</time>
      </trkpt>
      <trkpt lat="43.27564" lon="6.56862">
        <ele>6</ele>
        <time>2012-08-24T06:51:05Z</time>
      </trkpt>
      <trkpt lat="43.2755" lon="6.56803">
        <ele>6</ele>
        <time>2012-08-24T06:51:16Z</time>
      </trkpt>
      <trkpt lat="43.27532" lon="6.56741">
        <ele>6</ele>
        <time>2012-08-24T06:51:28Z</time>
      </trkpt>
      <trkpt lat="43.27517" lon="6.56677">
        <ele>7</ele>
        <time>2012-08-24T06:51:40Z</time>
      </trkpt>
      <trkpt lat="43.27502" lon="6.56617">
        <ele>7</ele>
        <time>2012-08-24T06:51:52Z</time>
      </trkpt>
      <trkpt lat="43.27479" lon="6.56564">
        <ele>7</ele>
        <time>2012-08-24T06:52:04Z</time>
      </trkpt>
      <trkpt lat="43.27449" lon="6.56514">
        <ele>7</ele>
        <time>2012-08-24T06:52:15Z</time>
      </trkpt>
      <trkpt lat="43.2742" lon="6.56466">
        <ele>7</ele>
        <time>2012-08-24T06:52:25Z</time>
      </trkpt>
      <trkpt lat="43.27387" lon="6.56417">
        <ele>7</ele>
        <time>2012-08-24T06:52:35Z</time>
      </trkpt>
      <trkpt lat="43.27363" lon="6.56364">
        <ele>7</ele>
        <time>2012-08-24T06:53:06Z</time>
      </trkpt>
      <trkpt lat="43.27349" lon="6.563">
        <ele>7</ele>
        <time>2012-08-24T06:54:34Z</time>
      </trkpt>
      <trkpt lat="43.27342" lon="6.56233">
        <ele>8</ele>
        <time>2012-08-24T06:54:50Z</time>
      </trkpt>
      <trkpt lat="43.27312" lon="6.56186">
        <ele>8</ele>
        <time>2012-08-24T06:55:02Z</time>
      </trkpt>
      <trkpt lat="43.27281" lon="6.56138">
        <ele>8</ele>
        <time>2012-08-24T06:55:15Z</time>
      </trkpt>
      <trkpt lat="43.27252" lon="6.56091">
        <ele>8</ele>
        <time>2012-08-24T06:55:27Z</time>
      </trkpt>
      <trkpt lat="43.27229" lon="6.56034">
        <ele>8</ele>
        <time>2012-08-24T06:55:39Z</time>
      </trkpt>
      <trkpt lat="43.27219" lon="6.55968">
        <ele>8</ele>
        <time>2012-08-24T06:55:51Z</time>
      </trkpt>
      <trkpt lat="43.27212" lon="6.55903">
        <ele>9</ele>
        <time>2012-08-24T06:56:04Z</time>
      </trkpt>
      <trkpt lat="43.27206" lon="6.55839">
        <ele>9</ele>
        <time>2012-08-24T06:56:15Z</time>
      </trkpt>
      <trkpt lat="43.27197" lon="6.55777">
        <ele>9</ele>
        <time>2012-08-24T06:56:26Z</time>
      </trkpt>
      <trkpt lat="43.27189" lon="6.55715">
        <ele>9</ele>
        <time>2012-08-24T06:56:37Z</time>
      </trkpt>
      <trkpt lat="43.27181" lon="6.55652">
        <ele>9</ele>
        <time>2012-08-24T06:56:50Z</time>
      </trkpt>
      <trkpt lat="43.27168" lon="6.55592">
        <ele>9</ele>
        <time>2012-08-24T06:57:04Z</time>
      </trkpt>
      <trkpt lat="43.27146" lon="6.55536">
        <ele>9</ele>
        <time>2012-08-24T06:57:17Z</time>
      </trkpt>
      <trkpt lat="43.2712" lon="6.55483">
        <ele>9</ele>
        <time>2012-08-24T06:57:28Z</time>
      </trkpt>
      <trkpt lat="43.271" lon="6.55427">
        <ele>9</ele>
        <time>2012-08-24T06:57:40Z</time>
      </trkpt>
      <trkpt lat="43.27083" lon="6.55369">
        <ele>10</ele>
        <time>2012-08-24T06:57:52Z</time>
      </trkpt>
      <trkpt lat="43.27099" lon="6.55314">
        <ele>10</ele>
        <time>2012-08-24T06:58:04Z</time>
      </trkpt>
      <trkpt lat="43.27126" lon="6.55259">
        <ele>11</ele>
        <time>2012-08-24T06:58:16Z</time>
      </trkpt>
      <trkpt lat="43.27136" lon="6.55198">
        <ele>12</ele>
        <time>2012-08-24T06:58:27Z</time>
      </trkpt>
      <trkpt lat="43.27144" lon="6.55136">
        <ele>12</ele>
        <time>2012-08-24T06:58:39Z</time>
      </trkpt>
      <trkpt lat="43.27156" lon="6.55072">
        <ele>12</ele>
        <time>2012-08-24T06:58:51Z</time>
      </trkpt>
      <trkpt lat="43.27168" lon="6.55012">
        <ele>13</ele>
        <time>2012-08-24T06:59:02Z</time>
      </trkpt>
      <trkpt lat="43.27189" lon="6.54952">
        <ele>13</ele>
        <time>2012-08-24T06:59:14Z</time>
      </trkpt>
      <trkpt lat="43.27207" lon="6.54888">
        <ele>14</ele>
        <time>2012-08-24T06:59:26Z</time>
      </trkpt>
      <trkpt lat="43.27226" lon="6.54829">
        <ele>14</ele>
        <time>2012-08-24T06:59:37Z</time>
      </trkpt>
      <trkpt lat="43.27247" lon="6.54771">
        <ele>15</ele>
        <time>2012-08-24T06:59:49Z</time>
      </trkpt>
      <trkpt lat="43.27271" lon="6.54713">
        <ele>16</ele>
        <time>2012-08-24T07:00:01Z</time>
      </trkpt>
      <trkpt lat="43.27296" lon="6.5466">
        <ele>16</ele>
        <time>2012-08-24T07:00:12Z</time>
      </trkpt>
      <trkpt lat="43.2731" lon="6.546">
        <ele>16</ele>
        <time>2012-08-24T07:00:23Z</time>
      </trkpt>
      <trkpt lat="43.27323" lon="6.5454">
        <ele>17</ele>
        <time>2012-08-24T07:00:35Z</time>
      </trkpt>
      <trkpt lat="43.27336" lon="6.5448">
        <ele>17</ele>
        <time>2012-08-24T07:00:46Z</time>
      </trkpt>
      <trkpt lat="43.27348" lon="6.54418">
        <ele>18</ele>
        <time>2012-08-24T07:00:58Z</time>
      </trkpt>
      <trkpt lat="43.27361" lon="6.54355">
        <ele>18</ele>
        <time>2012-08-24T07:01:11Z</time>
      </trkpt>
      <trkpt lat="43.27378" lon="6.54321">
        <ele>18</ele>
        <time>2012-08-24T07:02:07Z</time>
      </trkpt>
      <trkpt lat="43.27376" lon="6.54259">
        <ele>18</ele>
        <time>2012-08-24T07:02:25Z</time>
      </trkpt>
      <trkpt lat="43.27383" lon="6.54194">
        <ele>19</ele>
        <time>2012-08-24T07:02:36Z</time>
      </trkpt>
      <trkpt lat="43.27388" lon="6.54131">
        <ele>19</ele>
        <time>2012-08-24T07:02:48Z</time>
      </trkpt>
      <trkpt lat="43.27379" lon="6.54067">
        <ele>19</ele>
        <time>2012-08-24T07:03:00Z</time>
      </trkpt>
      <trkpt lat="43.27375" lon="6.54002">
        <ele>19</ele>
        <time>2012-08-24T07:03:15Z</time>
      </trkpt>
      <trkpt lat="43.27372" lon="6.5394">
        <ele>18</ele>
        <time>2012-08-24T07:03:26Z</time>
      </trkpt>
      <trkpt lat="43.27371" lon="6.53875">
        <ele>18</ele>
        <time>2012-08-24T07:03:36Z</time>
      </trkpt>
      <trkpt lat="43.27385" lon="6.53811">
        <ele>18</ele>
        <time>2012-08-24T07:03:49Z</time>
      </trkpt>
      <trkpt lat="43.27402" lon="6.5375">
        <ele>19</ele>
        <time>2012-08-24T07:04:01Z</time>
      </trkpt>
      <trkpt lat="43.27426" lon="6.53692">
        <ele>18</ele>
        <time>2012-08-24T07:04:13Z</time>
      </trkpt>
      <trkpt lat="43.2745" lon="6.53635">
        <ele>17</ele>
        <time>2012-08-24T07:04:24Z</time>
      </trkpt>
      <trkpt lat="43.27468" lon="6.53579">
        <ele>16</ele>
        <time>2012-08-24T07:04:36Z</time>
      </trkpt>
      <trkpt lat="43.27487" lon="6.53524">
        <ele>17</ele>
        <time>2012-08-24T07:04:47Z</time>
      </trkpt>
      <trkpt lat="43.27514" lon="6.53468">
        <ele>17</ele>
        <time>2012-08-24T07:04:58Z</time>
      </trkpt>
      <trkpt lat="43.2753" lon="6.53411">
        <ele>18</ele>
        <time>2012-08-24T07:05:09Z</time>
      </trkpt>
      <trkpt lat="43.27542" lon="6.53347">
        <ele>19</ele>
        <time>2012-08-24T07:05:20Z</time>
      </trkpt>
      <trkpt lat="43.27563" lon="6.53287">
        <ele>19</ele>
        <time>2012-08-24T07:05:31Z</time>
      </trkpt>
      <trkpt lat="43.27584" lon="6.5323">
        <ele>19</ele>
        <time>2012-08-24T07:05:42Z</time>
      </trkpt>
      <trkpt lat="43.27612" lon="6.53174">
        <ele>20</ele>
        <time>2012-08-24T07:05:54Z</time>
      </trkpt>
      <trkpt lat="43.27633" lon="6.53119">
        <ele>19</ele>
        <time>2012-08-24T07:06:05Z</time>
      </trkpt>
      <trkpt lat="43.2765" lon="6.53062">
        <ele>20</ele>
        <time>2012-08-24T07:06:17Z</time>
      </trkpt>
      <trkpt lat="43.27642" lon="6.52999">
        <ele>20</ele>
        <time>2012-08-24T07:06:28Z</time>
      </trkpt>
      <trkpt lat="43.27622" lon="6.52945">
        <ele>21</ele>
        <time>2012-08-24T07:06:44Z</time>
      </trkpt>
      <trkpt lat="43.27608" lon="6.529">
        <ele>20</ele>
        <time>2012-08-24T07:10:35Z</time>
      </trkpt>
      <trkpt lat="43.27609" lon="6.52836">
        <ele>20</ele>
        <time>2012-08-24T07:10:52Z</time>
      </trkpt>
      <trkpt lat="43.27607" lon="6.52772">
        <ele>21</ele>
        <time>2012-08-24T07:11:07Z</time>
      </trkpt>
      <trkpt lat="43.27631" lon="6.5272">
        <ele>22</ele>
        <time>2012-08-24T07:11:21Z</time>
      </trkpt>
      <trkpt lat="43.27657" lon="6.52661">
        <ele>23</ele>
        <time>2012-08-24T07:11:32Z</time>
      </trkpt>
      <trkpt lat="43.27698" lon="6.52629">
        <ele>25</ele>
        <time>2012-08-24T07:11:48Z</time>
      </trkpt>
      <trkpt lat="43.27746" lon="6.52627">
        <ele>27</ele>
        <time>2012-08-24T07:12:03Z</time>
      </trkpt>
      <trkpt lat="43.27774" lon="6.52592">
        <ele>31</ele>
        <time>2012-08-24T07:12:45Z</time>
      </trkpt>
      <trkpt lat="43.27817" lon="6.52605">
        <ele>33</ele>
        <time>2012-08-24T07:13:18Z</time>
      </trkpt>
      <trkpt lat="43.27841" lon="6.52565">
        <ele>38</ele>
        <time>2012-08-24T07:13:57Z</time>
      </trkpt>
      <trkpt lat="43.27838" lon="6.52509">
        <ele>42</ele>
        <time>2012-08-24T07:15:23Z</time>
      </trkpt>
      <trkpt lat="43.27855" lon="6.52448">
        <ele>41</ele>
        <time>2012-08-24T07:15:54Z</time>
      </trkpt>
      <trkpt lat="43.27849" lon="6.52389">
        <ele>44</ele>
        <time>2012-08-24T07:16:33Z</time>
      </trkpt>
      <trkpt lat="43.27851" lon="6.52329">
        <ele>45</ele>
        <time>2012-08-24T07:16:53Z</time>
      </trkpt>
      <trkpt lat="43.27845" lon="6.52268">
        <ele>49</ele>
        <time>2012-08-24T07:18:43Z</time>
      </trkpt>
      <trkpt lat="43.27841" lon="6.52201">
        <ele>47</ele>
        <time>2012-08-24T07:18:59Z</time>
      </trkpt>
      <trkpt lat="43.27833" lon="6.52137">
        <ele>45</ele>
        <time>2012-08-24T07:19:13Z</time>
      </trkpt>
      <trkpt lat="43.27828" lon="6.52072">
        <ele>42</ele>
        <time>2012-08-24T07:19:31Z</time>
      </trkpt>
      <trkpt lat="43.27813" lon="6.52026">
        <ele>42</ele>
        <time>2012-08-24T07:22:34Z</time>
      </trkpt>
      <trkpt lat="43.27786" lon="6.52069">
        <ele>52</ele>
        <time>2012-08-24T07:23:51Z</time>
      </trkpt>
      <trkpt lat="43.27745" lon="6.5209">
        <ele>64</ele>
        <time>2012-08-24T07:25:37Z</time>
      </trkpt>
      <trkpt lat="43.27699" lon="6.52077">
        <ele>62</ele>
        <time>2012-08-24T07:26:13Z</time>
      </trkpt>
      <trkpt lat="43.27659" lon="6.52047">
        <ele>63</ele>
        <time>2012-08-24T07:26:41Z</time>
      </trkpt>
      <trkpt lat="43.27652" lon="6.52065">
        <ele>70</ele>
        <time>2012-08-24T07:30:57Z</time>
      </trkpt>
      <trkpt lat="43.27611" lon="6.52026">
        <ele>77</ele>
        <time>2012-08-24T07:31:23Z</time>
      </trkpt>
      <trkpt lat="43.27585" lon="6.5195">
        <ele>72</ele>
        <time>2012-08-24T07:31:40Z</time>
      </trkpt>
      <trkpt lat="43.27583" lon="6.51882">
        <ele>69</ele>
        <time>2012-08-24T07:31:47Z</time>
      </trkpt>
      <trkpt lat="43.27597" lon="6.5182">
        <ele>73</ele>
        <time>2012-08-24T07:32:00Z</time>
      </trkpt>
      <trkpt lat="43.27632" lon="6.51781">
        <ele>68</ele>
        <time>2012-08-24T07:33:41Z</time>
      </trkpt>
      <trkpt lat="43.27668" lon="6.51738">
        <ele>70</ele>
        <time>2012-08-24T07:34:12Z</time>
      </trkpt>
      <trkpt lat="43.27677" lon="6.51673">
        <ele>70</ele>
        <time>2012-08-24T07:35:03Z</time>
      </trkpt>
      <trkpt lat="43.27652" lon="6.51623">
        <ele>71</ele>
        <time>2012-08-24T07:35:14Z</time>
      </trkpt>
      <trkpt lat="43.27614" lon="6.5159">
        <ele>73</ele>
        <time>2012-08-24T07:35:41Z</time>
      </trkpt>
      <trkpt lat="43.2764" lon="6.51578">
        <ele>71</ele>
        <time>2012-08-24T07:36:00Z</time>
      </trkpt>
      <trkpt lat="43.27692" lon="6.5158">
        <ele>66</ele>
        <time>2012-08-24T07:36:06Z</time>
      </trkpt>
      <trkpt lat="43.27738" lon="6.51582">
        <ele>63</ele>
        <time>2012-08-24T07:36:12Z</time>
      </trkpt>
      <trkpt lat="43.27791" lon="6.5159">
        <ele>61</ele>
        <time>2012-08-24T07:36:19Z</time>
      </trkpt>
      <trkpt lat="43.27842" lon="6.51602">
        <ele>62</ele>
        <time>2012-08-24T07:36:26Z</time>
      </trkpt>
      <trkpt lat="43.27891" lon="6.51616">
        <ele>62</ele>
        <time>2012-08-24T07:36:34Z</time>
      </trkpt>
      <trkpt lat="43.27934" lon="6.51633">
        <ele>60</ele>
        <time>2012-08-24T07:36:46Z</time>
      </trkpt>
      <trkpt lat="43.27979" lon="6.51636">
        <ele>61</ele>
        <time>2012-08-24T07:37:09Z</time>
      </trkpt>
      <trkpt lat="43.28026" lon="6.51643">
        <ele>61</ele>
        <time>2012-08-24T07:37:23Z</time>
      </trkpt>
      <trkpt lat="43.28072" lon="6.51654">
        <ele>60</ele>
        <time>2012-08-24T07:37:36Z</time>
      </trkpt>
      <trkpt lat="43.28118" lon="6.51667">
        <ele>61</ele>
        <time>2012-08-24T07:37:50Z</time>
      </trkpt>
      <trkpt lat="43.28164" lon="6.51694">
        <ele>59</ele>
        <time>2012-08-24T07:38:02Z</time>
      </trkpt>
      <trkpt lat="43.28211" lon="6.51691">
        <ele>59</ele>
        <time>2012-08-24T07:38:10Z</time>
      </trkpt>
      <trkpt lat="43.28265" lon="6.51695">
        <ele>58</ele>
        <time>2012-08-24T07:38:17Z</time>
      </trkpt>
      <trkpt lat="43.28311" lon="6.51699">
        <ele>57</ele>
        <time>2012-08-24T07:38:29Z</time>
      </trkpt>
      <trkpt lat="43.28354" lon="6.5171">
        <ele>60</ele>
        <time>2012-08-24T07:38:52Z</time>
      </trkpt>
      <trkpt lat="43.28398" lon="6.51697">
        <ele>61</ele>
        <time>2012-08-24T07:39:15Z</time>
      </trkpt>
      <trkpt lat="43.2844" lon="6.51717">
        <ele>65</ele>
        <time>2012-08-24T07:39:40Z</time>
      </trkpt>
      <trkpt lat="43.28483" lon="6.51721">
        <ele>67</ele>
        <time>2012-08-24T07:40:11Z</time>
      </trkpt>
      <trkpt lat="43.28528" lon="6.51713">
        <ele>75</ele>
        <time>2012-08-24T07:40:33Z</time>
      </trkpt>
      <trkpt lat="43.28575" lon="6.51717">
        <ele>79</ele>
        <time>2012-08-24T07:40:56Z</time>
      </trkpt>
      <trkpt lat="43.28621" lon="6.51722">
        <ele>81</ele>
        <time>2012-08-24T07:41:19Z</time>
      </trkpt>
      <trkpt lat="43.28665" lon="6.51708">
        <ele>89</ele>
        <time>2012-08-24T07:41:49Z</time>
      </trkpt>
      <trkpt lat="43.28711" lon="6.51705">
        <ele>93</ele>
        <time>2012-08-24T07:42:17Z</time>
      </trkpt>
      <trkpt lat="43.2872" lon="6.51712">
        <ele>93</ele>
        <time>2012-08-24T07:48:30Z</time>
      </trkpt>
      <trkpt lat="43.28765" lon="6.51727">
        <ele>97</ele>
        <time>2012-08-24T07:49:04Z</time>
      </trkpt>
      <trkpt lat="43.28807" lon="6.51749">
        <ele>100</ele>
        <time>2012-08-24T07:49:36Z</time>
      </trkpt>
      <trkpt lat="43.28852" lon="6.51767">
        <ele>107</ele>
        <time>2012-08-24T07:50:09Z</time>
      </trkpt>
      <trkpt lat="43.28895" lon="6.51778">
        <ele>110</ele>
        <time>2012-08-24T07:50:44Z</time>
      </trkpt>
      <trkpt lat="43.2893" lon="6.51741">
        <ele>118</ele>
        <time>2012-08-24T07:51:16Z</time>
      </trkpt>
      <trkpt lat="43.28973" lon="6.51735">
        <ele>121</ele>
        <time>2012-08-24T07:51:47Z</time>
      </trkpt>
      <trkpt lat="43.28979" lon="6.51711">
        <ele>128</ele>
        <time>2012-08-24T07:52:20Z</time>
      </trkpt>
      <trkpt lat="43.28961" lon="6.51684">
        <ele>133</ele>
        <time>2012-08-24T07:52:51Z</time>
      </trkpt>
      <trkpt lat="43.29006" lon="6.51695">
        <ele>136</ele>
        <time>2012-08-24T07:53:25Z</time>
      </trkpt>
      <trkpt lat="43.29046" lon="6.51723">
        <ele>139</ele>
        <time>2012-08-24T07:54:05Z</time>
      </trkpt>
      <trkpt lat="43.29086" lon="6.51754">
        <ele>144</ele>
        <time>2012-08-24T07:54:42Z</time>
      </trkpt>
      <trkpt lat="43.29123" lon="6.51786">
        <ele>150</ele>
        <time>2012-08-24T07:55:25Z</time>
      </trkpt>
      <trkpt lat="43.29165" lon="6.51795">
        <ele>158</ele>
        <time>2012-08-24T08:00:12Z</time>
      </trkpt>
      <trkpt lat="43.29208" lon="6.51806">
        <ele>165</ele>
        <time>2012-08-24T08:00:50Z</time>
      </trkpt>
      <trkpt lat="43.29239" lon="6.51848">
        <ele>168</ele>
        <time>2012-08-24T08:01:23Z</time>
      </trkpt>
      <trkpt lat="43.29281" lon="6.51838">
        <ele>174</ele>
        <time>2012-08-24T08:01:55Z</time>
      </trkpt>
      <trkpt lat="43.2932" lon="6.51826">
        <ele>180</ele>
        <time>2012-08-24T08:02:35Z</time>
      </trkpt>
      <trkpt lat="43.29312" lon="6.51783">
        <ele>183</ele>
        <time>2012-08-24T08:03:22Z</time>
      </trkpt>
      <trkpt lat="43.29358" lon="6.51791">
        <ele>187</ele>
        <time>2012-08-24T08:05:31Z</time>
      </trkpt>
      <trkpt lat="43.29402" lon="6.51787">
        <ele>193</ele>
        <time>2012-08-24T08:06:18Z</time>
      </trkpt>
      <trkpt lat="43.29446" lon="6.51785">
        <ele>202</ele>
        <time>2012-08-24T08:07:07Z</time>
      </trkpt>
      <trkpt lat="43.29487" lon="6.51811">
        <ele>207</ele>
        <time>2012-08-24T08:09:46Z</time>
      </trkpt>
      <trkpt lat="43.2953" lon="6.51823">
        <ele>211</ele>
        <time>2012-08-24T08:10:32Z</time>
      </trkpt>
      <trkpt lat="43.29574" lon="6.51811">
        <ele>217</ele>
        <time>2012-08-24T08:11:23Z</time>
      </trkpt>
      <trkpt lat="43.29615" lon="6.51798">
        <ele>221</ele>
        <time>2012-08-24T08:18:13Z</time>
      </trkpt>
      <trkpt lat="43.29659" lon="6.51781">
        <ele>225</ele>
        <time>2012-08-24T08:18:41Z</time>
      </trkpt>
      <trkpt lat="43.29696" lon="6.51749">
        <ele>230</ele>
        <time>2012-08-24T08:19:11Z</time>
      </trkpt>
      <trkpt lat="43.29741" lon="6.51752">
        <ele>227</ele>
        <time>2012-08-24T08:19:39Z</time>
      </trkpt>
      <trkpt lat="43.29781" lon="6.51725">
        <ele>236</ele>
        <time>2012-08-24T08:20:12Z</time>
      </trkpt>
      <trkpt lat="43.29824" lon="6.51726">
        <ele>243</ele>
        <time>2012-08-24T08:20:37Z</time>
      </trkpt>
      <trkpt lat="43.29829" lon="6.51786">
        <ele>238</ele>
        <time>2012-08-24T08:21:08Z</time>
      </trkpt>
      <trkpt lat="43.29863" lon="6.51821">
        <ele>244</ele>
        <time>2012-08-24T08:21:42Z</time>
      </trkpt>
      <trkpt lat="43.29899" lon="6.5186">
        <ele>250</ele>
        <time>2012-08-24T08:22:16Z</time>
      </trkpt>
      <trkpt lat="43.29935" lon="6.51897">
        <ele>253</ele>
        <time>2012-08-24T08:22:50Z</time>
      </trkpt>
      <trkpt lat="43.29973" lon="6.51926">
        <ele>253</ele>
        <time>2012-08-24T08:23:27Z</time>
      </trkpt>
      <trkpt lat="43.30014" lon="6.51918">
        <ele>259</ele>
        <time>2012-08-24T08:24:44Z</time>
      </trkpt>
      <trkpt lat="43.30059" lon="6.51921">
        <ele>262</ele>
        <time>2012-08-24T08:25:14Z</time>
      </trkpt>
      <trkpt lat="43.30102" lon="6.51945">
        <ele>265</ele>
        <time>2012-08-24T08:25:47Z</time>
      </trkpt>
      <trkpt lat="43.30138" lon="6.51982">
        <ele>267</ele>
        <time>2012-08-24T08:26:25Z</time>
      </trkpt>
      <trkpt lat="43.30182" lon="6.51991">
        <ele>272</ele>
        <time>2012-08-24T08:26:57Z</time>
      </trkpt>
      <trkpt lat="43.30229" lon="6.51997">
        <ele>274</ele>
        <time>2012-08-24T08:27:15Z</time>
      </trkpt>
      <trkpt lat="43.30274" lon="6.5201">
        <ele>274</ele>
        <time>2012-08-24T08:27:36Z</time>
      </trkpt>
      <trkpt lat="43.30317" lon="6.52036">
        <ele>270</ele>
        <time>2012-08-24T08:27:58Z</time>
      </trkpt>
      <trkpt lat="43.30359" lon="6.52049">
        <ele>271</ele>
        <time>2012-08-24T08:29:15Z</time>
      </trkpt>
      <trkpt lat="43.30401" lon="6.52067">
        <ele>273</ele>
        <time>2012-08-24T08:29:47Z</time>
      </trkpt>
      <trkpt lat="43.30445" lon="6.5209">
        <ele>275</ele>
        <time>2012-08-24T08:30:03Z</time>
      </trkpt>
      <trkpt lat="43.30489" lon="6.5208">
        <ele>271</ele>
        <time>2012-08-24T08:30:13Z</time>
      </trkpt>
      <trkpt lat="43.30539" lon="6.52094">
        <ele>272</ele>
        <time>2012-08-24T08:30:23Z</time>
      </trkpt>
      <trkpt lat="43.30586" lon="6.52116">
        <ele>271</ele>
        <time>2012-08-24T08:30:35Z</time>
      </trkpt>
      <trkpt lat="43.30626" lon="6.52146">
        <ele>269</ele>
        <time>2012-08-24T08:30:45Z</time>
      </trkpt>
      <trkpt lat="43.30669" lon="6.52168">
        <ele>267</ele>
        <time>2012-08-24T08:30:56Z</time>
      </trkpt>
      <trkpt lat="43.30708" lon="6.52206">
        <ele>267</ele>
        <time>2012-08-24T08:31:07Z</time>
      </trkpt>
      <trkpt lat="43.30751" lon="6.52225">
        <ele>265</ele>
        <time>2012-08-24T08:31:18Z</time>
      </trkpt>
      <trkpt lat="43.30795" lon="6.52219">
        <ele>262</ele>
        <time>2012-08-24T08:32:08Z</time>
      </trkpt>
      <trkpt lat="43.30834" lon="6.5225">
        <ele>264</ele>
        <time>2012-08-24T08:32:30Z</time>
      </trkpt>
      <trkpt lat="43.3088" lon="6.5227">
        <ele>263</ele>
        <time>2012-08-24T08:32:52Z</time>
      </trkpt>
      <trkpt lat="43.30927" lon="6.52267">
        <ele>262</ele>
        <time>2012-08-24T08:33:15Z</time>
      </trkpt>
      <trkpt lat="43.30971" lon="6.5225">
        <ele>262</ele>
        <time>2012-08-24T08:33:33Z</time>
      </trkpt>
      <trkpt lat="43.31011" lon="6.52222">
        <ele>257</ele>
        <time>2012-08-24T08:33:48Z</time>
      </trkpt>
      <trkpt lat="43.31054" lon="6.52255">
        <ele>255</ele>
        <time>2012-08-24T08:34:03Z</time>
      </trkpt>
      <trkpt lat="43.3109" lon="6.52296">
        <ele>253</ele>
        <time>2012-08-24T08:34:13Z</time>
      </trkpt>
      <trkpt lat="43.31085" lon="6.52358">
        <ele>252</ele>
        <time>2012-08-24T08:34:26Z</time>
      </trkpt>
      <trkpt lat="43.311" lon="6.52424">
        <ele>244</ele>
        <time>2012-08-24T08:34:35Z</time>
      </trkpt>
      <trkpt lat="43.31094" lon="6.52487">
        <ele>239</ele>
        <time>2012-08-24T08:34:44Z</time>
      </trkpt>
      <trkpt lat="43.31064" lon="6.5254">
        <ele>233</ele>
        <time>2012-08-24T08:34:52Z</time>
      </trkpt>
      <trkpt lat="43.31079" lon="6.52588">
        <ele>237</ele>
        <time>2012-08-24T08:35:02Z</time>
      </trkpt>
      <trkpt lat="43.31122" lon="6.52585">
        <ele>239</ele>
        <time>2012-08-24T08:35:30Z</time>
      </trkpt>
      <trkpt lat="43.31168" lon="6.52586">
        <ele>246</ele>
        <time>2012-08-24T08:35:59Z</time>
      </trkpt>
      <trkpt lat="43.31213" lon="6.5258">
        <ele>249</ele>
        <time>2012-08-24T08:36:30Z</time>
      </trkpt>
      <trkpt lat="43.31259" lon="6.5259">
        <ele>250</ele>
        <time>2012-08-24T08:37:04Z</time>
      </trkpt>
      <trkpt lat="43.31299" lon="6.5262">
        <ele>252</ele>
        <time>2012-08-24T08:37:35Z</time>
      </trkpt>
      <trkpt lat="43.3134" lon="6.52651">
        <ele>252</ele>
        <time>2012-08-24T08:38:03Z</time>
      </trkpt>
      <trkpt lat="43.31385" lon="6.52656">
        <ele>248</ele>
        <time>2012-08-24T08:38:22Z</time>
      </trkpt>
      <trkpt lat="43.31417" lon="6.527">
        <ele>244</ele>
        <time>2012-08-24T08:38:43Z</time>
      </trkpt>
      <trkpt lat="43.31422" lon="6.5277">
        <ele>247</ele>
        <time>2012-08-24T08:38:56Z</time>
      </trkpt>
      <trkpt lat="43.31437" lon="6.52833">
        <ele>243</ele>
        <time>2012-08-24T08:39:05Z</time>
      </trkpt>
      <trkpt lat="43.31447" lon="6.52896">
        <ele>239</ele>
        <time>2012-08-24T08:39:14Z</time>
      </trkpt>
      <trkpt lat="43.31459" lon="6.52953">
        <ele>237</ele>
        <time>2012-08-24T08:39:24Z</time>
      </trkpt>
      <trkpt lat="43.31479" lon="6.53009">
        <ele>233</ele>
        <time>2012-08-24T08:39:34Z</time>
      </trkpt>
      <trkpt lat="43.31484" lon="6.53072">
        <ele>233</ele>
        <time>2012-08-24T08:39:43Z</time>
      </trkpt>
      <trkpt lat="43.31485" lon="6.53139">
        <ele>229</ele>
        <time>2012-08-24T08:39:54Z</time>
      </trkpt>
      <trkpt lat="43.31474" lon="6.53201">
        <ele>225</ele>
        <time>2012-08-24T08:40:03Z</time>
      </trkpt>
      <trkpt lat="43.31455" lon="6.53263">
        <ele>222</ele>
        <time>2012-08-24T08:40:13Z</time>
      </trkpt>
      <trkpt lat="43.3143" lon="6.53314">
        <ele>221</ele>
        <time>2012-08-24T08:40:20Z</time>
      </trkpt>
      <trkpt lat="43.31398" lon="6.5336">
        <ele>218</ele>
        <time>2012-08-24T08:40:28Z</time>
      </trkpt>
      <trkpt lat="43.3136" lon="6.53396">
        <ele>222</ele>
        <time>2012-08-24T08:40:39Z</time>
      </trkpt>
      <trkpt lat="43.31331" lon="6.53448">
        <ele>224</ele>
        <time>2012-08-24T08:40:49Z</time>
      </trkpt>
      <trkpt lat="43.3134" lon="6.53514">
        <ele>213</ele>
        <time>2012-08-24T08:40:58Z</time>
      </trkpt>
      <trkpt lat="43.31329" lon="6.53578">
        <ele>211</ele>
        <time>2012-08-24T08:41:07Z</time>
      </trkpt>
      <trkpt lat="43.31308" lon="6.53638">
        <ele>213</ele>
        <time>2012-08-24T08:41:15Z</time>
      </trkpt>
      <trkpt lat="43.31299" lon="6.53702">
        <ele>210</ele>
        <time>2012-08-24T08:41:26Z</time>
      </trkpt>
      <trkpt lat="43.31296" lon="6.5377">
        <ele>207</ele>
        <time>2012-08-24T08:41:36Z</time>
      </trkpt>
      <trkpt lat="43.31284" lon="6.53833">
        <ele>210</ele>
        <time>2012-08-24T08:41:47Z</time>
      </trkpt>
      <trkpt lat="43.31292" lon="6.53893">
        <ele>204</ele>
        <time>2012-08-24T08:42:11Z</time>
      </trkpt>
      <trkpt lat="43.31292" lon="6.53958">
        <ele>202</ele>
        <time>2012-08-24T08:42:25Z</time>
      </trkpt>
      <trkpt lat="43.31283" lon="6.54024">
        <ele>205</ele>
        <time>2012-08-24T08:42:40Z</time>
      </trkpt>
      <trkpt lat="43.31309" lon="6.54072">
        <ele>197</ele>
        <time>2012-08-24T08:42:55Z</time>
      </trkpt>
      <trkpt lat="43.31302" lon="6.5414">
        <ele>198</ele>
        <time>2012-08-24T08:43:09Z</time>
      </trkpt>
      <trkpt lat="43.3128" lon="6.54194">
        <ele>202</ele>
        <time>2012-08-24T08:43:23Z</time>
      </trkpt>
      <trkpt lat="43.3131" lon="6.54235">
        <ele>198</ele>
        <time>2012-08-24T08:43:38Z</time>
      </trkpt>
      <trkpt lat="43.31345" lon="6.54282">
        <ele>198</ele>
        <time>2012-08-24T08:43:53Z</time>
      </trkpt>
      <trkpt lat="43.31351" lon="6.54344">
        <ele>201</ele>
        <time>2012-08-24T08:44:07Z</time>
      </trkpt>
      <trkpt lat="43.31326" lon="6.54396">
        <ele>204</ele>
        <time>2012-08-24T08:44:17Z</time>
      </trkpt>
      <trkpt lat="43.31329" lon="6.54468">
        <ele>196</ele>
        <time>2012-08-24T08:44:24Z</time>
      </trkpt>
      <trkpt lat="43.3133" lon="6.54531">
        <ele>192</ele>
        <time>2012-08-24T08:44:31Z</time>
      </trkpt>
      <trkpt lat="43.31311" lon="6.54591">
        <ele>193</ele>
        <time>2012-08-24T08:44:39Z</time>
      </trkpt>
      <trkpt lat="43.31297" lon="6.54653">
        <ele>192</ele>
        <time>2012-08-24T08:44:50Z</time>
      </trkpt>
      <trkpt lat="43.31262" lon="6.54689">
        <ele>194</ele>
        <time>2012-08-24T08:45:03Z</time>
      </trkpt>
      <trkpt lat="43.31223" lon="6.54716">
        <ele>194</ele>
        <time>2012-08-24T08:45:12Z</time>
      </trkpt>
      <trkpt lat="43.312" lon="6.54769">
        <ele>188</ele>
        <time>2012-08-24T08:45:19Z</time>
      </trkpt>
      <trkpt lat="43.3119" lon="6.54834">
        <ele>185</ele>
        <time>2012-08-24T08:45:27Z</time>
      </trkpt>
      <trkpt lat="43.31181" lon="6.54899">
        <ele>185</ele>
        <time>2012-08-24T08:45:39Z</time>
      </trkpt>
      <trkpt lat="43.31155" lon="6.54945">
        <ele>185</ele>
        <time>2012-08-24T08:45:55Z</time>
      </trkpt>
      <trkpt lat="43.3112" lon="6.54985">
        <ele>186</ele>
        <time>2012-08-24T08:46:11Z</time>
      </trkpt>
      <trkpt lat="43.31086" lon="6.55029">
        <ele>184</ele>
        <time>2012-08-24T08:46:29Z</time>
      </trkpt>
      <trkpt lat="43.31059" lon="6.55082">
        <ele>183</ele>
        <time>2012-08-24T08:47:00Z</time>
      </trkpt>
      <trkpt lat="43.31027" lon="6.55124">
        <ele>181</ele>
        <time>2012-08-24T08:47:18Z</time>
      </trkpt>
      <trkpt lat="43.31008" lon="6.55186">
        <ele>179</ele>
        <time>2012-08-24T08:47:28Z</time>
      </trkpt>
      <trkpt lat="43.30988" lon="6.55251">
        <ele>178</ele>
        <time>2012-08-24T08:47:37Z</time>
      </trkpt>
      <trkpt lat="43.30966" lon="6.55313">
        <ele>177</ele>
        <time>2012-08-24T08:47:47Z</time>
      </trkpt>
      <trkpt lat="43.30951" lon="6.55371">
        <ele>181</ele>
        <time>2012-08-24T08:48:08Z</time>
      </trkpt>
      <trkpt lat="43.3093" lon="6.55425">
        <ele>185</ele>
        <time>2012-08-24T08:48:34Z</time>
      </trkpt>
      <trkpt lat="43.30884" lon="6.55466">
        <ele>185</ele>
        <time>2012-08-24T08:49:00Z</time>
      </trkpt>
      <trkpt lat="43.30842" lon="6.55505">
        <ele>186</ele>
        <time>2012-08-24T08:49:12Z</time>
      </trkpt>
      <trkpt lat="43.30798" lon="6.55534">
        <ele>182</ele>
        <time>2012-08-24T08:49:22Z</time>
      </trkpt>
      <trkpt lat="43.30751" lon="6.55563">
        <ele>177</ele>
        <time>2012-08-24T08:49:31Z</time>
      </trkpt>
      <trkpt lat="43.30716" lon="6.55608">
        <ele>177</ele>
        <time>2012-08-24T08:49:40Z</time>
      </trkpt>
      <trkpt lat="43.30683" lon="6.55656">
        <ele>176</ele>
        <time>2012-08-24T08:49:49Z</time>
      </trkpt>
      <trkpt lat="43.30649" lon="6.55696">
        <ele>175</ele>
        <time>2012-08-24T08:49:59Z</time>
      </trkpt>
      <trkpt lat="43.30607" lon="6.55732">
        <ele>169</ele>
        <time>2012-08-24T08:50:09Z</time>
      </trkpt>
      <trkpt lat="43.30582" lon="6.55785">
        <ele>168</ele>
        <time>2012-08-24T08:50:18Z</time>
      </trkpt>
      <trkpt lat="43.30567" lon="6.55838">
        <ele>174</ele>
        <time>2012-08-24T08:50:39Z</time>
      </trkpt>
      <trkpt lat="43.30526" lon="6.55863">
        <ele>179</ele>
        <time>2012-08-24T08:51:30Z</time>
      </trkpt>
      <trkpt lat="43.30479" lon="6.55881">
        <ele>182</ele>
        <time>2012-08-24T08:52:06Z</time>
      </trkpt>
      <trkpt lat="43.30436" lon="6.559">
        <ele>183</ele>
        <time>2012-08-24T08:52:37Z</time>
      </trkpt>
      <trkpt lat="43.30399" lon="6.55931">
        <ele>188</ele>
        <time>2012-08-24T08:53:10Z</time>
      </trkpt>
      <trkpt lat="43.3037" lon="6.55983">
        <ele>196</ele>
        <time>2012-08-24T08:53:48Z</time>
      </trkpt>
      <trkpt lat="43.30359" lon="6.56046">
        <ele>206</ele>
        <time>2012-08-24T08:54:21Z</time>
      </trkpt>
      <trkpt lat="43.30337" lon="6.56106">
        <ele>208</ele>
        <time>2012-08-24T08:54:56Z</time>
      </trkpt>
      <trkpt lat="43.30317" lon="6.56166">
        <ele>209</ele>
        <time>2012-08-24T08:55:31Z</time>
      </trkpt>
      <trkpt lat="43.30295" lon="6.56223">
        <ele>207</ele>
        <time>2012-08-24T08:55:59Z</time>
      </trkpt>
      <trkpt lat="43.30287" lon="6.5628">
        <ele>209</ele>
        <time>2012-08-24T09:05:43Z</time>
      </trkpt>
      <trkpt lat="43.30273" lon="6.56339">
        <ele>208</ele>
        <time>2012-08-24T09:05:59Z</time>
      </trkpt>
      <trkpt lat="43.30252" lon="6.56395">
        <ele>205</ele>
        <time>2012-08-24T09:06:19Z</time>
      </trkpt>
      <trkpt lat="43.30255" lon="6.56439">
        <ele>201</ele>
        <time>2012-08-24T09:07:17Z</time>
      </trkpt>
      <trkpt lat="43.30303" lon="6.56432">
        <ele>201</ele>
        <time>2012-08-24T09:07:25Z</time>
      </trkpt>
      <trkpt lat="43.30338" lon="6.56401">
        <ele>206</ele>
        <time>2012-08-24T09:07:38Z</time>
      </trkpt>
      <trkpt lat="43.30384" lon="6.56395">
        <ele>210</ele>
        <time>2012-08-24T09:08:08Z</time>
      </trkpt>
      <trkpt lat="43.30429" lon="6.56407">
        <ele>213</ele>
        <time>2012-08-24T09:08:40Z</time>
      </trkpt>
      <trkpt lat="43.30475" lon="6.56415">
        <ele>218</ele>
        <time>2012-08-24T09:09:10Z</time>
      </trkpt>
      <trkpt lat="43.30524" lon="6.56411">
        <ele>225</ele>
        <time>2012-08-24T09:09:37Z</time>
      </trkpt>
      <trkpt lat="43.30571" lon="6.56408">
        <ele>231</ele>
        <time>2012-08-24T09:10:01Z</time>
      </trkpt>
      <trkpt lat="43.30611" lon="6.56448">
        <ele>224</ele>
        <time>2012-08-24T09:10:27Z</time>
      </trkpt>
      <trkpt lat="43.30649" lon="6.56447">
        <ele>228</ele>
        <time>2012-08-24T09:10:58Z</time>
      </trkpt>
      <trkpt lat="43.307" lon="6.56441">
        <ele>232</ele>
        <time>2012-08-24T09:11:21Z</time>
      </trkpt>
      <trkpt lat="43.30743" lon="6.56447">
        <ele>230</ele>
        <time>2012-08-24T09:11:40Z</time>
      </trkpt>
      <trkpt lat="43.30789" lon="6.56436">
        <ele>236</ele>
        <time>2012-08-24T09:11:58Z</time>
      </trkpt>
      <trkpt lat="43.30837" lon="6.56438">
        <ele>237</ele>
        <time>2012-08-24T09:12:16Z</time>
      </trkpt>
      <trkpt lat="43.30881" lon="6.56434">
        <ele>244</ele>
        <time>2012-08-24T09:12:40Z</time>
      </trkpt>
      <trkpt lat="43.30899" lon="6.56483">
        <ele>239</ele>
        <time>2012-08-24T09:13:05Z</time>
      </trkpt>
      <trkpt lat="43.30939" lon="6.56524">
        <ele>242</ele>
        <time>2012-08-24T09:13:19Z</time>
      </trkpt>
      <trkpt lat="43.3098" lon="6.56556">
        <ele>244</ele>
        <time>2012-08-24T09:13:39Z</time>
      </trkpt>
      <trkpt lat="43.31017" lon="6.56595">
        <ele>243</ele>
        <time>2012-08-24T09:13:54Z</time>
      </trkpt>
      <trkpt lat="43.31052" lon="6.56642">
        <ele>239</ele>
        <time>2012-08-24T09:14:07Z</time>
      </trkpt>
      <trkpt lat="43.31094" lon="6.56686">
        <ele>239</ele>
        <time>2012-08-24T09:14:17Z</time>
      </trkpt>
      <trkpt lat="43.31127" lon="6.56735">
        <ele>238</ele>
        <time>2012-08-24T09:14:28Z</time>
      </trkpt>
      <trkpt lat="43.31094" lon="6.56772">
        <ele>238</ele>
        <time>2012-08-24T09:14:56Z</time>
      </trkpt>
      <trkpt lat="43.31073" lon="6.56827">
        <ele>243</ele>
        <time>2012-08-24T09:15:17Z</time>
      </trkpt>
      <trkpt lat="43.31053" lon="6.56883">
        <ele>247</ele>
        <time>2012-08-24T09:15:44Z</time>
      </trkpt>
      <trkpt lat="43.31025" lon="6.56931">
        <ele>252</ele>
        <time>2012-08-24T09:16:10Z</time>
      </trkpt>
      <trkpt lat="43.30988" lon="6.56963">
        <ele>255</ele>
        <time>2012-08-24T09:16:35Z</time>
      </trkpt>
      <trkpt lat="43.30947" lon="6.5699">
        <ele>256</ele>
        <time>2012-08-24T09:17:01Z</time>
      </trkpt>
      <trkpt lat="43.30923" lon="6.57041">
        <ele>262</ele>
        <time>2012-08-24T09:17:24Z</time>
      </trkpt>
      <trkpt lat="43.30911" lon="6.57097">
        <ele>264</ele>
        <time>2012-08-24T09:17:52Z</time>
      </trkpt>
      <trkpt lat="43.30917" lon="6.57148">
        <ele>264</ele>
        <time>2012-08-24T09:23:54Z</time>
      </trkpt>
      <trkpt lat="43.30914" lon="6.57215">
        <ele>261</ele>
        <time>2012-08-24T09:24:06Z</time>
      </trkpt>
      <trkpt lat="43.30896" lon="6.57277">
        <ele>256</ele>
        <time>2012-08-24T09:24:16Z</time>
      </trkpt>
      <trkpt lat="43.30904" lon="6.57343">
        <ele>253</ele>
        <time>2012-08-24T09:24:27Z</time>
      </trkpt>
      <trkpt lat="43.30918" lon="6.574">
        <ele>249</ele>
        <time>2012-08-24T09:24:36Z</time>
      </trkpt>
      <trkpt lat="43.30951" lon="6.57442">
        <ele>250</ele>
        <time>2012-08-24T09:24:46Z</time>
      </trkpt>
      <trkpt lat="43.30949" lon="6.5751">
        <ele>238</ele>
        <time>2012-08-24T09:24:57Z</time>
      </trkpt>
      <trkpt lat="43.3097" lon="6.57568">
        <ele>235</ele>
        <time>2012-08-24T09:25:06Z</time>
      </trkpt>
      <trkpt lat="43.30998" lon="6.57611">
        <ele>236</ele>
        <time>2012-08-24T09:25:21Z</time>
      </trkpt>
      <trkpt lat="43.30989" lon="6.57673">
        <ele>229</ele>
        <time>2012-08-24T09:25:29Z</time>
      </trkpt>
      <trkpt lat="43.30979" lon="6.57736">
        <ele>226</ele>
        <time>2012-08-24T09:25:35Z</time>
      </trkpt>
      <trkpt lat="43.30974" lon="6.57786">
        <ele>224</ele>
        <time>2012-08-24T09:26:20Z</time>
      </trkpt>
      <trkpt lat="43.3095" lon="6.57844">
        <ele>224</ele>
        <time>2012-08-24T09:26:29Z</time>
      </trkpt>
      <trkpt lat="43.30907" lon="6.57868">
        <ele>221</ele>
        <time>2012-08-24T09:26:40Z</time>
      </trkpt>
      <trkpt lat="43.30863" lon="6.5786">
        <ele>216</ele>
        <time>2012-08-24T09:26:55Z</time>
      </trkpt>
      <trkpt lat="43.30815" lon="6.57874">
        <ele>210</ele>
        <time>2012-08-24T09:27:06Z</time>
      </trkpt>
      <trkpt lat="43.30771" lon="6.57872">
        <ele>203</ele>
        <time>2012-08-24T09:27:17Z</time>
      </trkpt>
      <trkpt lat="43.30747" lon="6.57875">
        <ele>200</ele>
        <time>2012-08-24T09:34:50Z</time>
      </trkpt>
      <trkpt lat="43.30772" lon="6.57931">
        <ele>199</ele>
        <time>2012-08-24T09:35:06Z</time>
      </trkpt>
      <trkpt lat="43.30783" lon="6.5799">
        <ele>197</ele>
        <time>2012-08-24T09:35:18Z</time>
      </trkpt>
      <trkpt lat="43.30771" lon="6.58064">
        <ele>189</ele>
        <time>2012-08-24T09:35:29Z</time>
      </trkpt>
      <trkpt lat="43.30751" lon="6.58121">
        <ele>181</ele>
        <time>2012-08-24T09:35:37Z</time>
      </trkpt>
      <trkpt lat="43.30774" lon="6.58176">
        <ele>181</ele>
        <time>2012-08-24T09:35:53Z</time>
      </trkpt>
      <trkpt lat="43.30788" lon="6.58237">
        <ele>178</ele>
        <time>2012-08-24T09:36:04Z</time>
      </trkpt>
      <trkpt lat="43.30817" lon="6.58289">
        <ele>180</ele>
        <time>2012-08-24T09:36:20Z</time>
      </trkpt>
      <trkpt lat="43.30859" lon="6.58331">
        <ele>187</ele>
        <time>2012-08-24T09:36:37Z</time>
      </trkpt>
      <trkpt lat="43.30894" lon="6.58376">
        <ele>192</ele>
        <time>2012-08-24T09:36:57Z</time>
      </trkpt>
      <trkpt lat="43.30921" lon="6.58419">
        <ele>192</ele>
        <time>2012-08-24T09:37:25Z</time>
      </trkpt>
      <trkpt lat="43.30938" lon="6.58478">
        <ele>191</ele>
        <time>2012-08-24T09:37:49Z</time>
      </trkpt>
      <trkpt lat="43.30947" lon="6.58538">
        <ele>191</ele>
        <time>2012-08-24T09:38:18Z</time>
      </trkpt>
      <trkpt lat="43.30948" lon="6.58565">
        <ele>192</ele>
        <time>2012-08-24T09:38:50Z</time>
      </trkpt>
      <trkpt lat="43.3094" lon="6.58501">
        <ele>191</ele>
        <time>2012-08-24T09:39:13Z</time>
      </trkpt>
      <trkpt lat="43.30939" lon="6.58502">
        <ele>191</ele>
        <time>2012-08-24T09:40:41Z</time>
      </trkpt>
      <trkpt lat="43.30945" lon="6.58566">
        <ele>193</ele>
        <time>2012-08-24T09:40:57Z</time>
      </trkpt>
      <trkpt lat="43.30963" lon="6.58629">
        <ele>192</ele>
        <time>2012-08-24T09:41:13Z</time>
      </trkpt>
      <trkpt lat="43.30947" lon="6.58686">
        <ele>193</ele>
        <time>2012-08-24T09:41:33Z</time>
      </trkpt>
      <trkpt lat="43.30916" lon="6.58728">
        <ele>193</ele>
        <time>2012-08-24T09:41:47Z</time>
      </trkpt>
      <trkpt lat="43.30891" lon="6.58783">
        <ele>190</ele>
        <time>2012-08-24T09:41:56Z</time>
      </trkpt>
      <trkpt lat="43.3087" lon="6.5885">
        <ele>185</ele>
        <time>2012-08-24T09:42:03Z</time>
      </trkpt>
      <trkpt lat="43.30858" lon="6.58908">
        <ele>182</ele>
        <time>2012-08-24T09:42:15Z</time>
      </trkpt>
      <trkpt lat="43.30876" lon="6.58944">
        <ele>184</ele>
        <time>2012-08-24T09:43:46Z</time>
      </trkpt>
      <trkpt lat="43.30856" lon="6.59001">
        <ele>192</ele>
        <time>2012-08-24T09:44:12Z</time>
      </trkpt>
      <trkpt lat="43.30831" lon="6.59053">
        <ele>197</ele>
        <time>2012-08-24T09:44:44Z</time>
      </trkpt>
      <trkpt lat="43.30809" lon="6.59108">
        <ele>201</ele>
        <time>2012-08-24T09:45:16Z</time>
      </trkpt>
      <trkpt lat="43.30783" lon="6.59159">
        <ele>205</ele>
        <time>2012-08-24T09:45:44Z</time>
      </trkpt>
      <trkpt lat="43.30764" lon="6.59216">
        <ele>211</ele>
        <time>2012-08-24T09:46:10Z</time>
      </trkpt>
      <trkpt lat="43.30744" lon="6.59269">
        <ele>216</ele>
        <time>2012-08-24T09:46:35Z</time>
      </trkpt>
      <trkpt lat="43.30725" lon="6.59325">
        <ele>220</ele>
        <time>2012-08-24T09:47:02Z</time>
      </trkpt>
      <trkpt lat="43.30705" lon="6.59381">
        <ele>224</ele>
        <time>2012-08-24T09:47:38Z</time>
      </trkpt>
      <trkpt lat="43.3069" lon="6.59439">
        <ele>224</ele>
        <time>2012-08-24T09:48:08Z</time>
      </trkpt>
      <trkpt lat="43.30708" lon="6.59494">
        <ele>231</ele>
        <time>2012-08-24T09:48:39Z</time>
      </trkpt>
      <trkpt lat="43.3074" lon="6.59537">
        <ele>240</ele>
        <time>2012-08-24T09:49:14Z</time>
      </trkpt>
      <trkpt lat="43.30743" lon="6.59593">
        <ele>239</ele>
        <time>2012-08-24T09:49:43Z</time>
      </trkpt>
      <trkpt lat="43.30753" lon="6.59616">
        <ele>241</ele>
        <time>2012-08-24T09:53:03Z</time>
      </trkpt>
      <trkpt lat="43.30748" lon="6.59555">
        <ele>243</ele>
        <time>2012-08-24T09:53:16Z</time>
      </trkpt>
      <trkpt lat="43.30717" lon="6.59517">
        <ele>232</ele>
        <time>2012-08-24T09:53:49Z</time>
      </trkpt>
      <trkpt lat="43.30695" lon="6.59469">
        <ele>228</ele>
        <time>2012-08-24T09:54:26Z</time>
      </trkpt>
      <trkpt lat="43.30725" lon="6.5952">
        <ele>235</ele>
        <time>2012-08-24T09:54:54Z</time>
      </trkpt>
      <trkpt lat="43.30751" lon="6.59568">
        <ele>244</ele>
        <time>2012-08-24T09:55:33Z</time>
      </trkpt>
      <trkpt lat="43.30754" lon="6.59624">
        <ele>241</ele>
        <time>2012-08-24T09:56:04Z</time>
      </trkpt>
      <trkpt lat="43.30775" lon="6.59682">
        <ele>244</ele>
        <time>2012-08-24T09:56:35Z</time>
      </trkpt>
      <trkpt lat="43.30804" lon="6.59726">
        <ele>254</ele>
        <time>2012-08-24T09:57:05Z</time>
      </trkpt>
      <trkpt lat="43.30804" lon="6.59788">
        <ele>254</ele>
        <time>2012-08-24T09:57:39Z</time>
      </trkpt>
      <trkpt lat="43.30784" lon="6.5984">
        <ele>253</ele>
        <time>2012-08-24T09:58:07Z</time>
      </trkpt>
      <trkpt lat="43.30758" lon="6.59889">
        <ele>251</ele>
        <time>2012-08-24T09:58:26Z</time>
      </trkpt>
      <trkpt lat="43.30727" lon="6.59939">
        <ele>249</ele>
        <time>2012-08-24T09:58:37Z</time>
      </trkpt>
      <trkpt lat="43.30674" lon="6.59965">
        <ele>240</ele>
        <time>2012-08-24T09:58:47Z</time>
      </trkpt>
      <trkpt lat="43.30637" lon="6.60006">
        <ele>234</ele>
        <time>2012-08-24T09:58:54Z</time>
      </trkpt>
      <trkpt lat="43.30625" lon="6.60015">
        <ele>233</ele>
        <time>2012-08-24T09:59:16Z</time>
      </trkpt>
      <trkpt lat="43.30631" lon="6.60018">
        <ele>235</ele>
        <time>2012-08-24T10:00:32Z</time>
      </trkpt>
      <trkpt lat="43.30651" lon="6.60077">
        <ele>233</ele>
        <time>2012-08-24T10:00:44Z</time>
      </trkpt>
      <trkpt lat="43.30683" lon="6.60128">
        <ele>227</ele>
        <time>2012-08-24T10:00:53Z</time>
      </trkpt>
      <trkpt lat="43.30716" lon="6.60176">
        <ele>227</ele>
        <time>2012-08-24T10:01:02Z</time>
      </trkpt>
      <trkpt lat="43.30732" lon="6.60237">
        <ele>221</ele>
        <time>2012-08-24T10:01:11Z</time>
      </trkpt>
      <trkpt lat="43.30742" lon="6.60305">
        <ele>211</ele>
        <time>2012-08-24T10:01:19Z</time>
      </trkpt>
      <trkpt lat="43.30765" lon="6.60358">
        <ele>205</ele>
        <time>2012-08-24T10:01:27Z</time>
      </trkpt>
      <trkpt lat="43.308" lon="6.60403">
        <ele>201</ele>
        <time>2012-08-24T10:01:35Z</time>
      </trkpt>
      <trkpt lat="43.30848" lon="6.6042">
        <ele>197</ele>
        <time>2012-08-24T10:01:43Z</time>
      </trkpt>
      <trkpt lat="43.30898" lon="6.60424">
        <ele>193</ele>
        <time>2012-08-24T10:01:51Z</time>
      </trkpt>
      <trkpt lat="43.30948" lon="6.60409">
        <ele>192</ele>
        <time>2012-08-24T10:02:02Z</time>
      </trkpt>
      <trkpt lat="43.30996" lon="6.60421">
        <ele>186</ele>
        <time>2012-08-24T10:02:13Z</time>
      </trkpt>
      <trkpt lat="43.31042" lon="6.6041">
        <ele>183</ele>
        <time>2012-08-24T10:02:28Z</time>
      </trkpt>
      <trkpt lat="43.31091" lon="6.60414">
        <ele>176</ele>
        <time>2012-08-24T10:02:45Z</time>
      </trkpt>
      <trkpt lat="43.31136" lon="6.60386">
        <ele>172</ele>
        <time>2012-08-24T10:02:55Z</time>
      </trkpt>
      <trkpt lat="43.31159" lon="6.60331">
        <ele>174</ele>
        <time>2012-08-24T10:03:05Z</time>
      </trkpt>
      <trkpt lat="43.31204" lon="6.60313">
        <ele>171</ele>
        <time>2012-08-24T10:03:17Z</time>
      </trkpt>
      <trkpt lat="43.31234" lon="6.60356">
        <ele>164</ele>
        <time>2012-08-24T10:03:29Z</time>
      </trkpt>
      <trkpt lat="43.31271" lon="6.60396">
        <ele>159</ele>
        <time>2012-08-24T10:03:36Z</time>
      </trkpt>
      <trkpt lat="43.31294" lon="6.60439">
        <ele>155</ele>
        <time>2012-08-24T10:03:48Z</time>
      </trkpt>
      <trkpt lat="43.31306" lon="6.60502">
        <ele>147</ele>
        <time>2012-08-24T10:03:57Z</time>
      </trkpt>
      <trkpt lat="43.31346" lon="6.60533">
        <ele>143</ele>
        <time>2012-08-24T10:04:06Z</time>
      </trkpt>
      <trkpt lat="43.3139" lon="6.60552">
        <ele>138</ele>
        <time>2012-08-24T10:04:16Z</time>
      </trkpt>
      <trkpt lat="43.31413" lon="6.60604">
        <ele>137</ele>
        <time>2012-08-24T10:04:30Z</time>
      </trkpt>
      <trkpt lat="43.31404" lon="6.60665">
        <ele>144</ele>
        <time>2012-08-24T10:04:50Z</time>
      </trkpt>
      <trkpt lat="43.31396" lon="6.60727">
        <ele>147</ele>
        <time>2012-08-24T10:05:15Z</time>
      </trkpt>
      <trkpt lat="43.31405" lon="6.60786">
        <ele>152</ele>
        <time>2012-08-24T10:05:40Z</time>
      </trkpt>
      <trkpt lat="43.31402" lon="6.60847">
        <ele>152</ele>
        <time>2012-08-24T10:06:06Z</time>
      </trkpt>
      <trkpt lat="43.31419" lon="6.60901">
        <ele>150</ele>
        <time>2012-08-24T10:06:29Z</time>
      </trkpt>
      <trkpt lat="43.31454" lon="6.60893">
        <ele>155</ele>
        <time>2012-08-24T10:20:52Z</time>
      </trkpt>
      <trkpt lat="43.31495" lon="6.60883">
        <ele>159</ele>
        <time>2012-08-24T10:21:56Z</time>
      </trkpt>
      <trkpt lat="43.31533" lon="6.60922">
        <ele>156</ele>
        <time>2012-08-24T10:22:13Z</time>
      </trkpt>
      <trkpt lat="43.31565" lon="6.60964">
        <ele>155</ele>
        <time>2012-08-24T10:22:25Z</time>
      </trkpt>
      <trkpt lat="43.31547" lon="6.61017">
        <ele>149</ele>
        <time>2012-08-24T10:22:42Z</time>
      </trkpt>
      <trkpt lat="43.31514" lon="6.61066">
        <ele>142</ele>
        <time>2012-08-24T10:22:52Z</time>
      </trkpt>
      <trkpt lat="43.31483" lon="6.61119">
        <ele>136</ele>
        <time>2012-08-24T10:23:02Z</time>
      </trkpt>
      <trkpt lat="43.31458" lon="6.61173">
        <ele>130</ele>
        <time>2012-08-24T10:23:09Z</time>
      </trkpt>
      <trkpt lat="43.31429" lon="6.61226">
        <ele>125</ele>
        <time>2012-08-24T10:23:14Z</time>
      </trkpt>
      <trkpt lat="43.31394" lon="6.61281">
        <ele>123</ele>
        <time>2012-08-24T10:23:19Z</time>
      </trkpt>
      <trkpt lat="43.31371" lon="6.61343">
        <ele>122</ele>
        <time>2012-08-24T10:23:24Z</time>
      </trkpt>
      <trkpt lat="43.31339" lon="6.61386">
        <ele>125</ele>
        <time>2012-08-24T10:23:32Z</time>
      </trkpt>
      <trkpt lat="43.31301" lon="6.61412">
        <ele>127</ele>
        <time>2012-08-24T10:24:01Z</time>
      </trkpt>
      <trkpt lat="43.3127" lon="6.61457">
        <ele>128</ele>
        <time>2012-08-24T10:24:18Z</time>
      </trkpt>
      <trkpt lat="43.31228" lon="6.6149">
        <ele>128</ele>
        <time>2012-08-24T10:24:35Z</time>
      </trkpt>
      <trkpt lat="43.31183" lon="6.61493">
        <ele>123</ele>
        <time>2012-08-24T10:24:47Z</time>
      </trkpt>
      <trkpt lat="43.31136" lon="6.61495">
        <ele>119</ele>
        <time>2012-08-24T10:24:58Z</time>
      </trkpt>
      <trkpt lat="43.3109" lon="6.61499">
        <ele>114</ele>
        <time>2012-08-24T10:25:07Z</time>
      </trkpt>
      <trkpt lat="43.31048" lon="6.61524">
        <ele>111</ele>
        <time>2012-08-24T10:25:17Z</time>
      </trkpt>
      <trkpt lat="43.31011" lon="6.61564">
        <ele>107</ele>
        <time>2012-08-24T10:25:27Z</time>
      </trkpt>
      <trkpt lat="43.30973" lon="6.61598">
        <ele>104</ele>
        <time>2012-08-24T10:25:40Z</time>
      </trkpt>
      <trkpt lat="43.30942" lon="6.61633">
        <ele>100</ele>
        <time>2012-08-24T10:26:22Z</time>
      </trkpt>
      <trkpt lat="43.30892" lon="6.61626">
        <ele>97</ele>
        <time>2012-08-24T10:26:38Z</time>
      </trkpt>
      <trkpt lat="43.30853" lon="6.61658">
        <ele>94</ele>
        <time>2012-08-24T10:26:48Z</time>
      </trkpt>
      <trkpt lat="43.30893" lon="6.61625">
        <ele>97</ele>
        <time>2012-08-24T10:27:03Z</time>
      </trkpt>
      <trkpt lat="43.30939" lon="6.61631">
        <ele>100</ele>
        <time>2012-08-24T10:27:28Z</time>
      </trkpt>
      <trkpt lat="43.30936" lon="6.61674">
        <ele>96</ele>
        <time>2012-08-24T10:27:42Z</time>
      </trkpt>
      <trkpt lat="43.30894" lon="6.61707">
        <ele>94</ele>
        <time>2012-08-24T10:27:49Z</time>
      </trkpt>
      <trkpt lat="43.30842" lon="6.61724">
        <ele>92</ele>
        <time>2012-08-24T10:27:56Z</time>
      </trkpt>
      <trkpt lat="43.30807" lon="6.61767">
        <ele>90</ele>
        <time>2012-08-24T10:28:03Z</time>
      </trkpt>
      <trkpt lat="43.30762" lon="6.6179">
        <ele>89</ele>
        <time>2012-08-24T10:28:12Z</time>
      </trkpt>
      <trkpt lat="43.30725" lon="6.6175">
        <ele>92</ele>
        <time>2012-08-24T10:28:22Z</time>
      </trkpt>
      <trkpt lat="43.30684" lon="6.61729">
        <ele>91</ele>
        <time>2012-08-24T10:28:39Z</time>
      </trkpt>
      <trkpt lat="43.30683" lon="6.61722">
        <ele>91</ele>
        <time>2012-08-24T10:29:08Z</time>
      </trkpt>
      <trkpt lat="43.30641" lon="6.61702">
        <ele>88</ele>
        <time>2012-08-24T10:29:31Z</time>
      </trkpt>
      <trkpt lat="43.30594" lon="6.61681">
        <ele>84</ele>
        <time>2012-08-24T10:29:40Z</time>
      </trkpt>
      <trkpt lat="43.30551" lon="6.61714">
        <ele>81</ele>
        <time>2012-08-24T10:29:49Z</time>
      </trkpt>
      <trkpt lat="43.3051" lon="6.61747">
        <ele>79</ele>
        <time>2012-08-24T10:29:58Z</time>
      </trkpt>
      <trkpt lat="43.30461" lon="6.61759">
        <ele>75</ele>
        <time>2012-08-24T10:30:06Z</time>
      </trkpt>
      <trkpt lat="43.30413" lon="6.61778">
        <ele>71</ele>
        <time>2012-08-24T10:30:13Z</time>
      </trkpt>
      <trkpt lat="43.30369" lon="6.61805">
        <ele>66</ele>
        <time>2012-08-24T10:30:22Z</time>
      </trkpt>
      <trkpt lat="43.30326" lon="6.6182">
        <ele>62</ele>
        <time>2012-08-24T10:30:30Z</time>
      </trkpt>
      <trkpt lat="43.30279" lon="6.61839">
        <ele>58</ele>
        <time>2012-08-24T10:30:40Z</time>
      </trkpt>
      <trkpt lat="43.3024" lon="6.61863">
        <ele>53</ele>
        <time>2012-08-24T10:30:59Z</time>
      </trkpt>
      <trkpt lat="43.30204" lon="6.6191">
        <ele>51</ele>
        <time>2012-08-24T10:31:10Z</time>
      </trkpt>
      <trkpt lat="43.30176" lon="6.61969">
        <ele>48</ele>
        <time>2012-08-24T10:31:19Z</time>
      </trkpt>
      <trkpt lat="43.30168" lon="6.62027">
        <ele>44</ele>
        <time>2012-08-24T10:31:32Z</time>
      </trkpt>
      <trkpt lat="43.30157" lon="6.62098">
        <ele>39</ele>
        <time>2012-08-24T10:31:40Z</time>
      </trkpt>
      <trkpt lat="43.30137" lon="6.62155">
        <ele>37</ele>
        <time>2012-08-24T10:31:49Z</time>
      </trkpt>
      <trkpt lat="43.30118" lon="6.62218">
        <ele>33</ele>
        <time>2012-08-24T10:31:57Z</time>
      </trkpt>
      <trkpt lat="43.30092" lon="6.62275">
        <ele>28</ele>
        <time>2012-08-24T10:32:04Z</time>
      </trkpt>
      <trkpt lat="43.30065" lon="6.62332">
        <ele>22</ele>
        <time>2012-08-24T10:32:11Z</time>
      </trkpt>
      <trkpt lat="43.30027" lon="6.62369">
        <ele>19</ele>
        <time>2012-08-24T10:32:18Z</time>
      </trkpt>
      <trkpt lat="43.30041" lon="6.62401">
        <ele>13</ele>
        <time>2012-08-24T10:32:26Z</time>
      </trkpt>
      <trkpt lat="43.30062" lon="6.62452">
        <ele>8</ele>
        <time>2012-08-24T10:32:34Z</time>
      </trkpt>
      <trkpt lat="43.30061" lon="6.62518">
        <ele>3</ele>
        <time>2012-08-24T10:32:41Z</time>
      </trkpt>
      <trkpt lat="43.3005" lon="6.62575">
        <ele>1</ele>
        <time>2012-08-24T10:32:57Z</time>
      </trkpt>
      <trkpt lat="43.30001" lon="6.62568">
        <ele>1</ele>
        <time>2012-08-24T10:33:30Z</time>
      </trkpt>
      <trkpt lat="43.29954" lon="6.62556">
        <ele>1</ele>
        <time>2012-08-24T10:33:48Z</time>
      </trkpt>
      <trkpt lat="43.29909" lon="6.62547">
        <ele>2</ele>
        <time>2012-08-24T10:34:01Z</time>
      </trkpt>
      <trkpt lat="43.29863" lon="6.62538">
        <ele>3</ele>
        <time>2012-08-24T10:34:14Z</time>
      </trkpt>
      <trkpt lat="43.29819" lon="6.62524">
        <ele>4</ele>
        <time>2012-08-24T10:34:27Z</time>
      </trkpt>
      <trkpt lat="43.29776" lon="6.62507">
        <ele>4</ele>
        <time>2012-08-24T10:34:40Z</time>
      </trkpt>
      <trkpt lat="43.29732" lon="6.62487">
        <ele>4</ele>
        <time>2012-08-24T10:34:53Z</time>
      </trkpt>
      <trkpt lat="43.29688" lon="6.6246">
        <ele>5</ele>
        <time>2012-08-24T10:35:08Z</time>
      </trkpt>
      <trkpt lat="43.29661" lon="6.62409">
        <ele>6</ele>
        <time>2012-08-24T10:35:21Z</time>
      </trkpt>
      <trkpt lat="43.29652" lon="6.62341">
        <ele>6</ele>
        <time>2012-08-24T10:35:32Z</time>
      </trkpt>
      <trkpt lat="43.29663" lon="6.62277">
        <ele>7</ele>
        <time>2012-08-24T10:35:43Z</time>
      </trkpt>
      <trkpt lat="43.29668" lon="6.62216">
        <ele>7</ele>
        <time>2012-08-24T10:35:52Z</time>
      </trkpt>
      <trkpt lat="43.29666" lon="6.62149">
        <ele>5</ele>
        <time>2012-08-24T10:36:01Z</time>
      </trkpt>
      <trkpt lat="43.2966" lon="6.62087">
        <ele>4</ele>
        <time>2012-08-24T10:36:10Z</time>
      </trkpt>
      <trkpt lat="43.29643" lon="6.62027">
        <ele>2</ele>
        <time>2012-08-24T10:36:20Z</time>
      </trkpt>
      <trkpt lat="43.29615" lon="6.61973">
        <ele>1</ele>
        <time>2012-08-24T10:36:31Z</time>
      </trkpt>
      <trkpt lat="43.29589" lon="6.6192">
        <ele>2</ele>
        <time>2012-08-24T10:36:41Z</time>
      </trkpt>
      <trkpt lat="43.29562" lon="6.61863">
        <ele>4</ele>
        <time>2012-08-24T10:36:52Z</time>
      </trkpt>
      <trkpt lat="43.29546" lon="6.61802">
        <ele>5</ele>
        <time>2012-08-24T10:37:03Z</time>
      </trkpt>
      <trkpt lat="43.29536" lon="6.61742">
        <ele>5</ele>
        <time>2012-08-24T10:37:14Z</time>
      </trkpt>
      <trkpt lat="43.29514" lon="6.61686">
        <ele>4</ele>
        <time>2012-08-24T10:37:27Z</time>
      </trkpt>
      <trkpt lat="43.29487" lon="6.61634">
        <ele>4</ele>
        <time>2012-08-24T10:37:40Z</time>
      </trkpt>
      <trkpt lat="43.2946" lon="6.6158">
        <ele>4</ele>
        <time>2012-08-24T10:37:53Z</time>
      </trkpt>
      <trkpt lat="43.29433" lon="6.61527">
        <ele>4</ele>
        <time>2012-08-24T10:38:05Z</time>
      </trkpt>
      <trkpt lat="43.294" lon="6.61481">
        <ele>2</ele>
        <time>2012-08-24T10:38:17Z</time>
      </trkpt>
      <trkpt lat="43.29363" lon="6.61443">
        <ele>3</ele>
        <time>2012-08-24T10:38:28Z</time>
      </trkpt>
      <trkpt lat="43.29327" lon="6.61402">
        <ele>3</ele>
        <time>2012-08-24T10:38:40Z</time>
      </trkpt>
      <trkpt lat="43.2929" lon="6.61364">
        <ele>3</ele>
        <time>2012-08-24T10:38:50Z</time>
      </trkpt>
      <trkpt lat="43.29254" lon="6.61325">
        <ele>2</ele>
        <time>2012-08-24T10:38:59Z</time>
      </trkpt>
      <trkpt lat="43.29222" lon="6.61277">
        <ele>2</ele>
        <time>2012-08-24T10:39:09Z</time>
      </trkpt>
      <trkpt lat="43.29201" lon="6.61217">
        <ele>1</ele>
        <time>2012-08-24T10:39:18Z</time>
      </trkpt>
      <trkpt lat="43.29185" lon="6.61153">
        <ele>1</ele>
        <time>2012-08-24T10:39:26Z</time>
      </trkpt>
      <trkpt lat="43.29168" lon="6.61092">
        <ele>2</ele>
        <time>2012-08-24T10:39:34Z</time>
      </trkpt>
      <trkpt lat="43.29153" lon="6.61034">
        <ele>2</ele>
        <time>2012-08-24T10:39:43Z</time>
      </trkpt>
      <trkpt lat="43.29131" lon="6.60979">
        <ele>3</ele>
        <time>2012-08-24T10:39:54Z</time>
      </trkpt>
      <trkpt lat="43.291" lon="6.60934">
        <ele>3</ele>
        <time>2012-08-24T10:40:12Z</time>
      </trkpt>
      <trkpt lat="43.29066" lon="6.60897">
        <ele>2</ele>
        <time>2012-08-24T10:40:37Z</time>
      </trkpt>
      <trkpt lat="43.29033" lon="6.6085">
        <ele>2</ele>
        <time>2012-08-24T10:40:55Z</time>
      </trkpt>
      <trkpt lat="43.29018" lon="6.60791">
        <ele>3</ele>
        <time>2012-08-24T10:41:14Z</time>
      </trkpt>
      <trkpt lat="43.29008" lon="6.60729">
        <ele>4</ele>
        <time>2012-08-24T10:41:31Z</time>
      </trkpt>
      <trkpt lat="43.29" lon="6.60667">
        <ele>5</ele>
        <time>2012-08-24T10:41:45Z</time>
      </trkpt>
      <trkpt lat="43.2898" lon="6.60607">
        <ele>6</ele>
        <time>2012-08-24T10:42:01Z</time>
      </trkpt>
      <trkpt lat="43.28955" lon="6.60555">
        <ele>6</ele>
        <time>2012-08-24T10:42:16Z</time>
      </trkpt>
      <trkpt lat="43.28927" lon="6.60503">
        <ele>8</ele>
        <time>2012-08-24T10:42:30Z</time>
      </trkpt>
      <trkpt lat="43.28894" lon="6.60454">
        <ele>9</ele>
        <time>2012-08-24T10:42:44Z</time>
      </trkpt>
      <trkpt lat="43.28859" lon="6.60412">
        <ele>9</ele>
        <time>2012-08-24T10:42:58Z</time>
      </trkpt>
      <trkpt lat="43.28825" lon="6.60367">
        <ele>9</ele>
        <time>2012-08-24T10:43:13Z</time>
      </trkpt>
      <trkpt lat="43.28796" lon="6.60315">
        <ele>9</ele>
        <time>2012-08-24T10:43:27Z</time>
      </trkpt>
      <trkpt lat="43.28768" lon="6.60266">
        <ele>8</ele>
        <time>2012-08-24T10:43:40Z</time>
      </trkpt>
      <trkpt lat="43.28739" lon="6.60217">
        <ele>8</ele>
        <time>2012-08-24T10:43:56Z</time>
      </trkpt>
      <trkpt lat="43.28712" lon="6.60171">
        <ele>8</ele>
        <time>2012-08-24T10:44:10Z</time>
      </trkpt>
      <trkpt lat="43.28682" lon="6.60119">
        <ele>8</ele>
        <time>2012-08-24T10:44:24Z</time>
      </trkpt>
      <trkpt lat="43.28652" lon="6.60068">
        <ele>8</ele>
        <time>2012-08-24T10:44:37Z</time>
      </trkpt>
      <trkpt lat="43.28623" lon="6.60019">
        <ele>9</ele>
        <time>2012-08-24T10:44:49Z</time>
      </trkpt>
      <trkpt lat="43.28591" lon="6.59969">
        <ele>11</ele>
        <time>2012-08-24T10:45:01Z</time>
      </trkpt>
      <trkpt lat="43.28565" lon="6.59918">
        <ele>11</ele>
        <time>2012-08-24T10:45:13Z</time>
      </trkpt>
      <trkpt lat="43.28546" lon="6.59858">
        <ele>10</ele>
        <time>2012-08-24T10:45:25Z</time>
      </trkpt>
      <trkpt lat="43.28533" lon="6.59801">
        <ele>9</ele>
        <time>2012-08-24T10:45:39Z</time>
      </trkpt>
      <trkpt lat="43.28514" lon="6.59732">
        <ele>8</ele>
        <time>2012-08-24T10:45:47Z</time>
      </trkpt>
      <trkpt lat="43.28498" lon="6.59675">
        <ele>7</ele>
        <time>2012-08-24T10:45:55Z</time>
      </trkpt>
      <trkpt lat="43.28484" lon="6.59616">
        <ele>4</ele>
        <time>2012-08-24T10:46:04Z</time>
      </trkpt>
      <trkpt lat="43.28469" lon="6.59554">
        <ele>4</ele>
        <time>2012-08-24T10:46:14Z</time>
      </trkpt>
      <trkpt lat="43.28451" lon="6.59492">
        <ele>4</ele>
        <time>2012-08-24T10:46:22Z</time>
      </trkpt>
      <trkpt lat="43.28436" lon="6.59429">
        <ele>4</ele>
        <time>2012-08-24T10:46:32Z</time>
      </trkpt>
      <trkpt lat="43.28419" lon="6.59367">
        <ele>3</ele>
        <time>2012-08-24T10:46:42Z</time>
      </trkpt>
      <trkpt lat="43.28399" lon="6.59302">
        <ele>3</ele>
        <time>2012-08-24T10:46:48Z</time>
      </trkpt>
      <trkpt lat="43.2838" lon="6.59233">
        <ele>4</ele>
        <time>2012-08-24T10:46:54Z</time>
      </trkpt>
      <trkpt lat="43.28364" lon="6.59173">
        <ele>4</ele>
        <time>2012-08-24T10:47:00Z</time>
      </trkpt>
      <trkpt lat="43.28347" lon="6.59113">
        <ele>4</ele>
        <time>2012-08-24T10:47:07Z</time>
      </trkpt>
      <trkpt lat="43.2833" lon="6.5905">
        <ele>5</ele>
        <time>2012-08-24T10:47:14Z</time>
      </trkpt>
      <trkpt lat="43.28313" lon="6.5899">
        <ele>4</ele>
        <time>2012-08-24T10:47:20Z</time>
      </trkpt>
      <trkpt lat="43.28297" lon="6.5893">
        <ele>4</ele>
        <time>2012-08-24T10:47:26Z</time>
      </trkpt>
      <trkpt lat="43.28279" lon="6.58865">
        <ele>5</ele>
        <time>2012-08-24T10:47:33Z</time>
      </trkpt>
      <trkpt lat="43.28262" lon="6.58804">
        <ele>5</ele>
        <time>2012-08-24T10:47:40Z</time>
      </trkpt>
      <trkpt lat="43.28246" lon="6.58743">
        <ele>5</ele>
        <time>2012-08-24T10:47:47Z</time>
      </trkpt>
      <trkpt lat="43.28231" lon="6.58683">
        <ele>5</ele>
        <time>2012-08-24T10:47:54Z</time>
      </trkpt>
      <trkpt lat="43.28213" lon="6.58617">
        <ele>6</ele>
        <time>2012-08-24T10:48:03Z</time>
      </trkpt>
      <trkpt lat="43.28187" lon="6.58649">
        <ele>4</ele>
        <time>2012-08-24T10:48:13Z</time>
      </trkpt>
      <trkpt lat="43.2817" lon="6.5871">
        <ele>2</ele>
        <time>2012-08-24T10:48:24Z</time>
      </trkpt>
    </trkseg>
  </trk>
</gpx>